Time;durP1;ratioP1;P1;durP2;ratioP2;P2;SDS_P1;SDS_P2;PMS_P1;PMS_P2;Temp;Humidity;BMP_temperature;BMP_pressure;BME280_temperature;BME280_humidity;BME280_pressure;Samples;Min_cycle;Max_cycle;Signal;HPM_P1;HPM_P2
2022/05/23 00:01:37;;;;;;;9.25;5.93;;;;;;;16.82;79.08;100559.16;5278415;28;20036;-64
2022/05/23 00:04:08;;;;;;;15.07;5.95;;;;;;;16.72;73.82;100555.72;5276880;28;20020;-64
2022/05/23 00:06:40;;;;;;;11.45;6.47;;;;;;;16.79;78.05;100559.44;5278926;28;20031;-64
2022/05/23 00:09:12;;;;;;;10.40;6.18;;;;;;;16.75;73.55;100558.09;5277954;28;20028;-65
2022/05/23 00:11:43;;;;;;;11.02;6.55;;;;;;;16.74;75.04;100557.25;5277654;28;20036;-64
2022/05/23 00:14:15;;;;;;;10.60;5.80;;;;;;;16.75;73.96;100567.00;5278430;28;20020;-64
2022/05/23 00:16:49;;;;;;;9.73;6.00;;;;;;;16.66;74.22;100562.59;5278372;28;20029;-64
2022/05/23 00:19:22;;;;;;;9.82;6.13;;;;;;;16.60;77.69;100556.03;5278247;28;20414;-64
2022/05/23 00:21:55;;;;;;;8.57;6.35;;;;;;;16.64;80.49;100552.03;5278215;28;20486;-64
2022/05/23 00:24:26;;;;;;;10.98;6.03;;;;;;;16.57;77.16;100544.75;5270599;28;20522;-64
2022/05/23 00:26:58;;;;;;;9.52;6.50;;;;;;;16.59;77.52;100527.41;5271340;28;20060;-64
2022/05/23 00:29:29;;;;;;;10.52;6.60;;;;;;;16.61;75.03;100533.47;5270960;28;20036;-64
2022/05/23 00:37:41;;;;;;;13.93;8.15;;;;;;;16.56;73.60;100543.91;5277890;28;20108;-64
2022/05/23 00:40:38;;;;;;;10.48;7.18;;;;;;;16.58;73.86;100544.56;5274463;28;20111;-64
2022/05/23 00:43:16;;;;;;;9.88;7.35;;;;;;;16.62;77.26;100540.53;5278012;28;20494;-64
2022/05/23 00:45:49;;;;;;;11.93;7.40;;;;;;;16.49;78.31;100525.88;5278501;28;20386;-64
2022/05/23 00:48:25;;;;;;;15.35;7.55;;;;;;;16.55;76.88;100526.06;5276479;28;20517;-64
2022/05/23 00:50:59;;;;;;;10.95;6.90;;;;;;;16.46;76.99;100518.97;5277472;28;20035;-64
2022/05/23 00:53:50;;;;;;;9.32;7.10;;;;;;;16.49;77.27;100507.84;5277444;28;20067;-64
2022/05/23 00:56:26;;;;;;;9.60;7.10;;;;;;;16.43;77.76;100508.50;5275680;28;20032;-64
2022/05/23 00:59:02;;;;;;;12.82;7.60;;;;;;;16.41;75.50;100513.22;5277410;28;20032;-64
2022/05/23 01:01:37;;;;;;;12.88;7.55;;;;;;;16.38;80.28;100502.78;5277783;28;20032;-64
2022/05/23 01:04:08;;;;;;;13.82;7.72;;;;;;;16.35;75.31;100497.72;5277642;28;20031;-64
2022/05/23 01:06:40;;;;;;;11.23;7.65;;;;;;;16.36;75.15;100499.41;5277325;28;20020;-64
2022/05/23 01:09:11;;;;;;;14.55;7.47;;;;;;;16.34;77.05;100507.66;5276795;28;20028;-64
2022/05/23 01:11:42;;;;;;;13.43;7.55;;;;;;;16.29;78.49;100514.53;5276386;28;20024;-65
2022/05/23 01:14:14;;;;;;;12.18;7.40;;;;;;;16.32;81.80;100522.25;5277990;28;20102;-65
2022/05/23 01:16:46;;;;;;;11.98;8.30;;;;;;;16.31;82.64;100523.28;5277740;28;20051;-65
2022/05/23 01:19:18;;;;;;;13.93;8.00;;;;;;;16.32;81.09;100525.81;5274741;28;20063;-65
2022/05/23 01:21:58;;;;;;;11.13;7.10;;;;;;;16.22;80.46;100523.25;5276215;28;20044;-65
2022/05/23 01:24:38;;;;;;;12.95;7.93;;;;;;;16.30;83.25;100505.44;5277271;28;20075;-65
2022/05/23 01:27:11;;;;;;;10.75;7.57;;;;;;;16.11;80.21;100509.22;5270676;28;20035;-65
2022/05/23 01:29:44;;;;;;;11.55;7.47;;;;;;;16.08;83.46;100502.31;5277167;28;20028;-65
2022/05/23 01:32:15;;;;;;;15.35;7.90;;;;;;;15.98;80.83;100502.47;5278027;28;20032;-65
2022/05/23 01:34:46;;;;;;;9.30;7.00;;;;;;;15.83;82.31;100496.00;5275136;28;20033;-65
2022/05/23 01:37:18;;;;;;;10.90;7.68;;;;;;;15.81;82.75;100495.31;5277833;28;20056;-65
2022/05/23 01:39:49;;;;;;;11.18;7.70;;;;;;;15.75;83.03;100488.72;5275088;28;20036;-65
2022/05/23 01:42:20;;;;;;;11.02;7.30;;;;;;;15.67;82.68;100491.34;5277358;28;20039;-65
2022/05/23 01:44:51;;;;;;;9.70;7.80;;;;;;;15.72;84.38;100493.53;5276871;28;20121;-65
2022/05/23 01:47:23;;;;;;;12.15;7.75;;;;;;;15.58;84.04;100497.66;5277009;28;20142;-65
2022/05/23 01:49:54;;;;;;;12.98;7.70;;;;;;;15.50;83.97;100498.47;5276295;28;20033;-65
2022/05/23 01:52:25;;;;;;;11.73;8.45;;;;;;;15.47;83.73;100494.25;5276999;28;20483;-65
2022/05/23 01:54:56;;;;;;;11.93;8.07;;;;;;;15.47;84.31;100502.31;5275614;28;20474;-65
2022/05/23 01:57:30;;;;;;;11.00;8.20;;;;;;;15.49;84.60;100497.63;5276736;28;20024;-65
2022/05/23 02:02:54;;;;;;;11.48;8.30;;;;;;;15.51;86.77;100483.16;5271349;28;20487;-64
2022/05/23 02:05:25;;;;;;;11.13;8.02;;;;;;;15.52;87.42;100472.25;5268711;28;20024;-65
2022/05/23 02:07:57;;;;;;;11.05;8.05;;;;;;;15.48;87.23;100474.41;5275509;28;20033;-65
2022/05/23 02:10:29;;;;;;;13.80;8.48;;;;;;;15.47;83.47;100480.81;5276574;28;20032;-65
2022/05/23 02:13:02;;;;;;;13.18;8.88;;;;;;;15.40;85.22;100476.22;5276678;28;20055;-65
2022/05/23 02:15:34;;;;;;;15.27;8.73;;;;;;;15.43;86.64;100479.41;5275693;28;20028;-65
2022/05/23 02:18:05;;;;;;;13.07;8.80;;;;;;;15.40;85.82;100478.91;5275927;28;20309;-65
2022/05/23 02:20:37;;;;;;;11.63;8.18;;;;;;;15.35;83.64;100476.69;5275423;28;20123;-65
2022/05/23 02:23:08;;;;;;;10.82;7.82;;;;;;;15.38;84.13;100484.44;5267324;28;20099;-65
2022/05/23 02:25:39;;;;;;;14.18;8.68;;;;;;;15.41;86.06;100476.03;5277476;28;20388;-65
2022/05/23 02:28:10;;;;;;;13.38;8.55;;;;;;;15.37;85.78;100474.69;5277313;28;20079;-65
2022/05/23 02:30:42;;;;;;;11.30;8.50;;;;;;;15.38;87.19;100471.00;5276490;28;20093;-65
2022/05/23 02:33:14;;;;;;;11.27;8.52;;;;;;;15.35;85.98;100462.41;5276853;28;20016;-65
2022/05/23 02:35:46;;;;;;;13.85;8.77;;;;;;;15.26;85.30;100459.66;5274955;28;20028;-64
2022/05/23 02:38:18;;;;;;;12.88;8.55;;;;;;;15.32;87.45;100450.09;5272978;28;20397;-65
2022/05/23 02:40:49;;;;;;;13.43;8.57;;;;;;;15.37;87.76;100453.16;5275877;28;20024;-65
2022/05/23 02:43:20;;;;;;;13.23;9.10;;;;;;;15.26;87.19;100450.75;5276412;28;20075;-65
2022/05/23 02:45:51;;;;;;;12.75;8.38;;;;;;;15.24;86.16;100442.81;5273846;28;20033;-65
2022/05/23 02:48:23;;;;;;;14.63;9.18;;;;;;;15.22;86.90;100436.78;5276505;28;20044;-65
2022/05/23 02:50:54;;;;;;;15.18;8.73;;;;;;;15.27;86.13;100428.25;5274600;28;20503;-65
2022/05/23 02:53:25;;;;;;;13.68;9.02;;;;;;;15.22;86.30;100428.72;5276431;28;20502;-64
2022/05/23 02:55:56;;;;;;;12.40;9.40;;;;;;;15.21;87.72;100415.44;5275035;28;20032;-65
2022/05/23 02:58:27;;;;;;;16.77;10.00;;;;;;;15.29;89.21;100415.50;5276281;28;20048;-65
2022/05/23 03:00:59;;;;;;;11.80;9.50;;;;;;;15.16;87.11;100397.09;5275361;28;20448;-64
2022/05/23 03:03:32;;;;;;;11.40;8.60;;;;;;;15.17;86.50;100393.41;5276495;28;20063;-65
2022/05/23 03:06:04;;;;;;;15.55;9.80;;;;;;;15.15;88.20;100381.13;5274979;28;20082;-64
2022/05/23 03:08:37;;;;;;;12.90;8.88;;;;;;;15.08;87.84;100372.88;5274934;28;20089;-65
2022/05/23 03:11:08;;;;;;;13.60;9.75;;;;;;;15.08;86.71;100354.91;5275579;28;20148;-65
2022/05/23 03:13:40;;;;;;;15.35;10.10;;;;;;;15.22;85.73;100352.63;5275627;28;20473;-65
2022/05/23 03:16:13;;;;;;;14.80;8.95;;;;;;;15.28;88.26;100346.59;5267700;28;20040;-64
2022/05/23 03:18:44;;;;;;;13.05;9.77;;;;;;;15.24;89.25;100353.31;5273876;28;20029;-65
2022/05/23 03:26:58;;;;;;;14.93;9.40;;;;;;;15.15;89.28;100348.88;5274936;28;20059;-65
2022/05/23 03:26:59;;;;;;;13.02;10.02;;;;;;;14.95;88.81;100341.03;5270461;28;20045;-64
2022/05/23 03:29:30;;;;;;;;;;;;;;;15.15;86.99;100330.06;5276345;28;20119;-64
2022/05/23 03:32:02;;;;;;;13.43;9.80;;;;;;;14.93;89.45;100331.47;5275912;28;20003;-65
2022/05/23 03:34:33;;;;;;;12.57;9.68;;;;;;;14.90;90.60;100330.78;5267071;28;20297;-65
2022/05/23 03:37:08;;;;;;;16.20;9.02;;;;;;;14.84;90.13;100317.13;5274309;28;20386;-64
2022/05/23 03:39:39;;;;;;;15.13;10.05;;;;;;;14.88;92.28;100316.66;5274102;28;20071;-65
2022/05/23 03:42:10;;;;;;;13.65;9.35;;;;;;;14.83;91.21;100318.16;5269182;28;20470;-65
2022/05/23 03:44:42;;;;;;;13.65;9.85;;;;;;;14.86;90.84;100307.06;5275126;28;20024;-64
2022/05/23 03:47:13;;;;;;;13.55;9.70;;;;;;;14.80;90.22;100311.22;5275260;28;20078;-65
2022/05/23 03:49:44;;;;;;;16.55;9.95;;;;;;;14.82;92.52;100303.03;5274298;28;20033;-65
2022/05/23 03:52:16;;;;;;;15.13;9.95;;;;;;;14.75;90.91;100300.13;5274832;28;20121;-65
2022/05/23 03:54:47;;;;;;;18.70;10.05;;;;;;;14.74;89.85;100293.06;5273581;28;20032;-64
2022/05/23 03:57:19;;;;;;;13.02;9.43;;;;;;;14.75;91.42;100293.94;5274632;28;20032;-64
2022/05/23 03:59:52;;;;;;;16.17;10.32;;;;;;;14.68;91.07;100297.22;5279000;28;20040;-65
2022/05/23 04:02:24;;;;;;;14.75;10.00;;;;;;;14.68;92.23;100293.72;5278372;28;20101;-65
2022/05/23 04:04:56;;;;;;;13.98;9.80;;;;;;;14.62;93.15;100291.66;5277506;28;20024;-65
2022/05/23 04:07:27;;;;;;;15.77;9.13;;;;;;;14.61;93.03;100298.88;5277810;28;20371;-65
2022/05/23 04:09:59;;;;;;;16.02;10.25;;;;;;;14.59;92.68;100281.22;5278617;28;20028;-65
2022/05/23 04:12:30;;;;;;;12.07;9.10;;;;;;;14.55;94.18;100277.13;5277311;28;20805;-65
2022/05/23 04:15:03;;;;;;;14.35;9.90;;;;;;;14.54;93.59;100276.31;5269650;28;20060;-64
2022/05/23 04:17:35;;;;;;;13.30;9.30;;;;;;;14.54;93.50;100268.25;5278618;28;20063;-64
2022/05/23 04:20:08;;;;;;;14.57;10.85;;;;;;;14.52;94.39;100257.66;5278620;28;20448;-65
2022/05/23 04:22:39;;;;;;;14.73;9.93;;;;;;;14.51;93.14;100260.50;5277360;28;20395;-65
2022/05/23 04:25:11;;;;;;;14.25;10.02;;;;;;;14.62;94.04;100265.63;5279203;28;20053;-64
2022/05/23 04:27:42;;;;;;;12.95;10.20;;;;;;;14.65;95.62;100261.78;5274445;28;20366;-64
2022/05/23 04:30:14;;;;;;;16.50;10.07;;;;;;;14.61;95.08;100265.78;5278153;28;20118;-65
2022/05/23 04:35:35;;;;;;;13.70;10.15;;;;;;;14.65;95.55;100256.41;5268312;28;20061;-64
2022/05/23 04:38:06;;;;;;;14.23;9.63;;;;;;;14.73;93.62;100258.31;5279174;28;20458;-64
2022/05/23 04:40:38;;;;;;;13.02;9.70;;;;;;;14.80;95.35;100262.06;5277118;28;20039;-65
2022/05/23 04:43:10;;;;;;;15.18;10.32;;;;;;;14.85;95.45;100262.44;5278181;28;20037;-65
2022/05/23 04:45:42;;;;;;;15.20;10.15;;;;;;;14.95;96.83;100252.41;5277771;28;20101;-65
2022/05/23 04:51:03;;;;;;;12.93;9.73;;;;;;;14.99;94.39;100240.31;5277679;28;20048;-65
2022/05/23 04:53:35;;;;;;;11.13;9.05;;;;;;;15.01;94.06;100242.84;5276369;28;20032;-65
2022/05/23 04:56:07;;;;;;;13.93;9.35;;;;;;;15.07;92.58;100231.44;5277477;28;20471;-65
2022/05/23 04:58:38;;;;;;;14.43;9.30;;;;;;;15.18;96.50;100225.78;5272159;28;20029;-65
2022/05/23 05:01:09;;;;;;;12.93;9.43;;;;;;;15.15;95.89;100233.31;5270765;28;20493;-65
2022/05/23 05:03:41;;;;;;;13.77;10.07;;;;;;;15.18;96.51;100233.84;5276118;28;20092;-64
2022/05/23 05:06:12;;;;;;;11.48;8.90;;;;;;;15.25;94.00;100234.06;5278141;28;20029;-65
2022/05/23 05:08:43;;;;;;;12.35;9.07;;;;;;;15.28;93.64;100233.72;5274557;28;20474;-65
2022/05/23 05:11:15;;;;;;;15.68;9.50;;;;;;;15.39;94.25;100228.03;5276680;28;20029;-65
2022/05/23 05:13:46;;;;;;;13.10;9.45;;;;;;;15.44;93.47;100222.19;5277070;28;20076;-65
2022/05/23 05:16:19;;;;;;;12.32;8.48;;;;;;;15.52;93.70;100207.91;5277022;28;20021;-65
2022/05/23 05:18:50;;;;;;;12.18;8.80;;;;;;;15.59;95.02;100193.66;5275576;28;20024;-64
2022/05/23 05:21:21;;;;;;;13.27;8.65;;;;;;;15.71;95.03;100194.16;5277973;28;20028;-65
2022/05/23 05:23:54;;;;;;;15.20;8.55;;;;;;;15.90;96.17;100194.84;5276751;28;20051;-65
2022/05/23 05:26:25;;;;;;;9.95;8.70;;;;;;;15.93;94.70;100181.06;5276788;28;20103;-65
2022/05/23 05:28:57;;;;;;;12.40;8.48;;;;;;;16.00;93.33;100184.78;5275832;28;20119;-65
2022/05/23 05:31:48;;;;;;;12.75;8.77;;;;;;;16.11;92.34;100187.13;5277001;28;20036;-65
2022/05/23 05:34:37;;;;;;;11.63;8.52;;;;;;;16.31;89.36;100181.38;5275437;28;20040;-65
2022/05/23 05:37:15;;;;;;;13.32;9.43;;;;;;;16.31;94.64;100171.44;5277849;28;20029;-65
2022/05/23 05:39:47;;;;;;;12.85;9.27;;;;;;;16.31;92.63;100167.91;5276574;28;20375;-65
2022/05/23 05:42:26;;;;;;;12.95;9.30;;;;;;;16.43;92.07;100170.09;5277095;28;20028;-65
2022/05/23 05:45:06;;;;;;;12.30;8.95;;;;;;;16.52;90.10;100157.41;5272777;28;20047;-65
2022/05/23 05:47:41;;;;;;;16.42;8.82;;;;;;;16.59;90.07;100153.03;5272707;28;20116;-65
2022/05/23 05:50:29;;;;;;;12.13;8.55;;;;;;;16.73;90.07;100156.00;5275660;28;20043;-65
2022/05/23 05:53:05;;;;;;;12.38;9.10;;;;;;;16.77;91.52;100143.88;5272451;28;20024;-65
2022/05/23 05:55:39;;;;;;;10.20;8.73;;;;;;;16.85;86.06;100142.00;5276462;28;20115;-65
2022/05/23 05:58:10;;;;;;;13.73;9.52;;;;;;;16.90;86.20;100146.03;5277103;28;20024;-65
2022/05/23 06:00:41;;;;;;;11.45;8.80;;;;;;;16.98;85.17;100144.13;5274825;28;20107;-65
2022/05/23 06:03:13;;;;;;;12.93;8.82;;;;;;;17.02;86.60;100147.31;5276971;28;20509;-65
2022/05/23 06:11:34;;;;;;;10.20;8.10;;;;;;;17.30;81.92;100144.13;5220751;28;20105;-65
2022/05/23 06:14:06;;;;;;;11.18;8.52;;;;;;;17.43;85.04;100147.91;5272257;28;20028;-65
2022/05/23 06:16:38;;;;;;;10.80;8.98;;;;;;;17.47;82.92;100140.31;5273254;28;20431;-65
2022/05/23 06:19:09;;;;;;;12.48;8.93;;;;;;;17.50;88.64;100134.53;5276461;28;20111;-65
2022/05/23 06:21:41;;;;;;;11.80;8.50;;;;;;;17.66;85.71;100128.19;5274704;28;20119;-65
2022/05/23 06:24:13;;;;;;;11.55;8.10;;;;;;;17.77;83.62;100127.72;5276002;28;20052;-65
2022/05/23 06:26:44;;;;;;;13.20;8.65;;;;;;;17.92;82.13;100116.19;5275660;28;20021;-65
2022/05/23 06:29:15;;;;;;;10.70;8.35;;;;;;;17.96;84.54;100121.03;5276558;28;20047;-65
2022/05/23 06:31:47;;;;;;;10.55;7.60;;;;;;;18.06;81.01;100112.66;5275397;28;20615;-65
2022/05/23 06:34:19;;;;;;;11.85;8.05;;;;;;;18.15;81.76;100108.03;5273966;28;20055;-65
2022/05/23 06:36:50;;;;;;;11.27;7.88;;;;;;;18.17;78.94;100111.38;5275250;28;20028;-65
2022/05/23 06:39:22;;;;;;;12.73;8.18;;;;;;;18.23;84.87;100113.31;5276796;28;20055;-65
2022/05/23 06:41:53;;;;;;;9.43;7.40;;;;;;;18.43;78.56;100119.03;5273524;28;20501;-65
2022/05/23 06:44:24;;;;;;;11.52;7.25;;;;;;;18.33;80.17;100115.75;5276762;28;20035;-65
2022/05/23 06:46:56;;;;;;;11.68;7.75;;;;;;;18.45;81.70;100108.88;5276621;28;20028;-64
2022/05/23 06:49:27;;;;;;;12.93;7.60;;;;;;;18.53;78.59;100119.56;5272026;28;20449;-64
2022/05/23 06:51:59;;;;;;;11.68;7.57;;;;;;;18.69;81.55;100107.72;5276244;28;20454;-64
2022/05/23 06:54:30;;;;;;;11.30;7.90;;;;;;;18.74;74.96;100113.41;5276001;28;20147;-64
2022/05/23 06:57:02;;;;;;;10.82;7.50;;;;;;;18.86;76.92;100116.47;5275585;28;20033;-64
2022/05/23 06:59:33;;;;;;;10.23;7.15;;;;;;;19.05;73.99;100111.50;5275584;28;20080;-64
2022/05/23 07:02:07;;;;;;;11.43;7.43;;;;;;;19.12;76.55;100118.66;5276225;28;20020;-64
2022/05/23 07:13:08;;;;;;;10.20;6.30;;;;;;;19.65;72.05;100117.50;5276739;28;20335;-64
2022/05/23 07:15:46;;;;;;;9.45;6.10;;;;;;;19.57;78.06;100115.78;5274439;28;20032;-65
2022/05/23 07:18:19;;;;;;;11.38;5.47;;;;;;;19.63;71.29;100104.16;5273964;28;20075;-65
2022/05/23 07:20:50;;;;;;;8.25;5.38;;;;;;;19.55;76.95;100107.84;5275380;28;20083;-65
2022/05/23 07:23:22;;;;;;;10.77;5.57;;;;;;;19.29;77.22;100104.88;5275117;28;20045;-65
2022/05/23 07:25:53;;;;;;;7.60;5.13;;;;;;;19.24;76.13;100107.34;5275190;28;20037;-65
2022/05/23 07:28:25;;;;;;;9.88;5.43;;;;;;;19.22;76.89;100110.25;5275805;28;20040;-65
2022/05/23 07:30:57;;;;;;;7.90;5.75;;;;;;;19.37;75.58;100104.78;5273121;28;20056;-65
2022/05/23 07:33:30;;;;;;;8.48;5.78;;;;;;;19.45;76.48;100117.34;5276605;28;20039;-65
2022/05/23 07:36:01;;;;;;;8.23;5.45;;;;;;;19.47;76.69;100115.28;5279541;28;20244;-65
2022/05/23 07:38:33;;;;;;;8.65;5.65;;;;;;;19.59;76.40;100119.13;5279210;28;20020;-65
2022/05/23 07:41:09;;;;;;;10.52;5.38;;;;;;;19.78;74.70;100118.47;5279332;28;20043;-65
2022/05/23 07:43:41;;;;;;;10.75;5.50;;;;;;;20.00;71.76;100104.06;5277701;28;20028;-65
2022/05/23 07:46:17;;;;;;;8.00;4.97;;;;;;;20.23;71.61;100098.38;5279694;28;20048;-65
2022/05/23 07:48:49;;;;;;;8.77;5.45;;;;;;;20.29;73.85;100084.91;5278944;28;20058;-65
2022/05/23 07:51:23;;;;;;;9.38;5.63;;;;;;;20.61;73.75;100098.00;5279326;28;20116;-65
2022/05/23 08:02:23;;;;;;;8.70;4.85;;;;;;;21.47;63.53;100097.44;5279687;28;20040;-65
2022/05/23 08:04:55;;;;;;;7.72;4.72;;;;;;;21.63;65.93;100088.03;5275864;28;20032;-65
2022/05/23 08:07:28;;;;;;;10.68;4.85;;;;;;;21.71;63.95;100082.44;5277812;28;20486;-65
2022/05/23 08:10:00;;;;;;;6.07;3.88;;;;;;;21.74;64.15;100073.84;5279465;28;20031;-65
2022/05/23 08:12:33;;;;;;;10.18;4.20;;;;;;;21.83;62.19;100071.75;5277037;28;20024;-65
2022/05/23 08:15:05;;;;;;;10.18;4.53;;;;;;;21.71;61.99;100053.38;5271560;28;20179;-65
2022/05/23 08:17:36;;;;;;;8.52;4.40;;;;;;;21.64;61.26;100055.25;5278400;28;20020;-65
2022/05/23 08:20:08;;;;;;;11.73;4.10;;;;;;;21.51;65.85;100058.81;5277890;28;20174;-65
2022/05/23 08:22:39;;;;;;;6.50;4.00;;;;;;;21.59;62.69;100062.34;5277145;28;20047;-65
2022/05/23 08:25:11;;;;;;;8.15;4.20;;;;;;;21.27;62.89;100057.53;5278355;28;20608;-65
2022/05/23 08:27:42;;;;;;;7.53;4.18;;;;;;;21.38;63.48;100057.94;5277688;28;20032;-65
2022/05/23 08:30:14;;;;;;;8.68;4.22;;;;;;;21.10;65.34;100046.22;5279306;28;20024;-65
2022/05/23 08:32:45;;;;;;;8.65;4.05;;;;;;;;;;5279321;28;20077;-65
2022/05/23 08:35:17;;;;;;;7.88;4.22;;;;;;;21.01;67.14;100046.63;5276259;28;20036;-65
2022/05/23 08:37:48;;;;;;;7.07;4.22;;;;;;;21.12;65.51;100037.88;5278823;28;20119;-65
2022/05/23 08:40:38;;;;;;;8.43;4.15;;;;;;;21.18;66.55;100020.78;5278263;28;20063;-66
2022/05/23 08:43:12;;;;;;;8.60;4.05;;;;;;;21.10;65.47;100015.56;5275312;28;20029;-65
2022/05/23 08:45:45;;;;;;;12.25;4.13;;;;;;;21.10;67.50;100015.56;5278391;28;20443;-65
2022/05/23 08:48:39;;;;;;;9.98;4.50;;;;;;;21.30;67.15;100010.97;5279734;28;20031;-65
2022/05/23 08:51:10;;;;;;;9.45;4.88;;;;;;;21.23;68.26;100010.16;5276765;28;20085;-65
2022/05/23 08:53:51;;;;;;;9.50;4.47;;;;;;;21.53;67.16;100007.03;5277355;28;20480;-65
2022/05/23 08:56:29;;;;;;;9.50;4.43;;;;;;;21.51;63.25;100007.22;5277984;28;20127;-65
2022/05/23 08:59:04;;;;;;;8.90;4.53;;;;;;;21.46;66.02;100007.03;5277865;28;20373;-65
2022/05/23 09:01:53;;;;;;;9.50;4.22;;;;;;;21.68;65.09;100001.38;5276629;28;20068;-65
2022/05/23 09:04:44;;;;;;;7.57;4.20;;;;;;;21.86;66.68;99995.28;5272728;28;20060;-65
2022/05/23 09:07:33;;;;;;;6.88;3.75;;;;;;;21.81;64.33;99987.78;5277260;28;20028;-65
2022/05/23 09:10:11;;;;;;;11.02;5.03;;;;;;;21.69;61.93;99978.63;5273722;28;20533;-65
2022/05/23 09:12:43;;;;;;;9.82;4.18;;;;;;;21.59;61.80;99973.59;5277731;28;20043;-65
2022/05/23 09:15:14;;;;;;;7.05;4.28;;;;;;;21.63;69.61;99977.59;5277994;28;20470;-65
2022/05/23 09:17:59;;;;;;;8.68;4.63;;;;;;;21.57;67.61;99972.97;5274816;28;20064;-65
2022/05/23 09:20:44;;;;;;;11.25;4.40;;;;;;;21.41;68.70;99981.53;5277187;28;20117;-64
2022/05/23 09:23:31;;;;;;;7.05;3.92;;;;;;;21.37;69.81;99972.16;5271954;28;20048;-65
2022/05/23 09:26:09;;;;;;;9.18;3.95;;;;;;;21.40;65.76;99972.56;5275863;28;20486;-65
2022/05/23 09:28:41;;;;;;;10.57;4.07;;;;;;;21.30;65.45;99955.88;5277798;28;20460;-65
2022/05/23 09:31:48;;;;;;;10.20;4.60;;;;;;;21.29;69.02;99963.19;5277300;28;20119;-65
2022/05/23 09:34:43;;;;;;;9.70;4.10;;;;;;;21.45;65.21;99950.25;5276980;28;20056;-65
2022/05/23 09:37:21;;;;;;;8.70;3.72;;;;;;;21.28;69.03;99944.38;5277484;28;20585;-65
2022/05/23 09:39:55;;;;;;;11.07;4.32;;;;;;;21.58;63.47;99925.81;5276548;28;20485;-65
2022/05/23 09:48:26;;;;;;;8.48;4.05;;;;;;;22.19;62.24;99913.69;5268818;28;20107;-65
2022/05/23 09:51:05;;;;;;;6.35;3.80;;;;;;;22.22;66.53;99920.56;5276348;28;20107;-65
2022/05/23 09:53:53;;;;;;;8.13;4.07;;;;;;;22.28;67.17;99906.13;5269552;28;20020;-65
2022/05/23 09:56:31;;;;;;;12.55;4.70;;;;;;;22.47;65.25;99902.47;5273592;28;20075;-65
2022/05/23 09:59:07;;;;;;;6.80;4.50;;;;;;;22.62;61.80;99894.00;5272758;28;20387;-65
2022/05/23 10:01:38;;;;;;;9.75;5.35;;;;;;;22.65;60.49;99884.59;5270895;28;20052;-65
2022/05/23 10:04:18;;;;;;;10.98;5.05;;;;;;;22.62;61.50;99888.56;5276125;28;20084;-65
2022/05/23 10:06:50;;;;;;;9.23;4.63;;;;;;;22.67;62.00;99882.47;5269189;28;20074;-65
2022/05/23 10:09:31;;;;;;;10.15;4.85;;;;;;;22.76;60.49;99874.88;5276430;28;20025;-65
2022/05/23 10:12:08;;;;;;;7.80;4.32;;;;;;;22.70;58.84;99876.59;5276962;28;20032;-65
2022/05/23 10:14:46;;;;;;;10.20;4.80;;;;;;;22.96;59.59;99869.28;5274458;28;20054;-65
2022/05/23 10:17:29;;;;;;;8.07;4.38;;;;;;;23.00;57.91;99865.06;5274210;28;20028;-65
2022/05/23 10:20:34;;;;;;;9.68;4.78;;;;;;;22.91;60.83;99875.38;5275182;28;20032;-65
2022/05/23 10:23:07;;;;;;;9.55;4.20;;;;;;;22.94;62.05;99885.81;5270910;28;20052;-65
2022/05/23 10:25:55;;;;;;;8.23;4.47;;;;;;;22.96;58.25;99886.44;5275708;28;20374;-65
2022/05/23 10:28:51;;;;;;;10.75;4.43;;;;;;;22.87;60.78;99883.13;5275172;28;20024;-65
2022/05/23 10:31:30;;;;;;;6.40;4.30;;;;;;;23.12;58.46;99878.78;5277339;28;20107;-65
2022/05/23 10:34:10;;;;;;;8.48;4.38;;;;;;;23.16;57.57;99874.56;5267790;28;20063;-65
2022/05/23 10:36:46;;;;;;;8.98;3.97;;;;;;;23.31;56.83;99874.22;5275830;28;20145;-65
2022/05/23 10:42:15;;;;;;;8.85;4.22;;;;;;;23.38;56.21;99855.94;5269342;28;20024;-65
2022/05/23 10:45:21;;;;;;;7.03;3.80;;;;;;;23.50;55.24;99848.66;5275656;28;20039;-65
2022/05/23 10:48:11;;;;;;;7.70;5.22;;;;;;;23.58;55.54;99834.72;5276228;28;20074;-65
2022/05/23 10:50:52;;;;;;;7.88;4.13;;;;;;;23.63;54.86;99823.16;5273253;28;20541;-65
2022/05/23 10:54:18;;;;;;;7.80;3.63;;;;;;;23.74;55.73;99816.09;5270589;28;20412;-65
2022/05/23 10:57:06;;;;;;;9.55;4.05;;;;;;;23.88;54.11;99823.09;5189837;28;20046;-65
2022/05/23 11:00:08;;;;;;;6.72;4.40;;;;;;;23.84;55.39;99824.63;5264910;28;20052;-65
2022/05/23 11:03:18;;;;;;;7.32;4.15;;;;;;;23.83;54.89;99809.31;5271712;28;20036;-65
2022/05/23 11:06:11;;;;;;;9.35;4.32;;;;;;;23.80;53.82;99813.34;5269741;28;20029;-65
2022/05/23 11:09:10;;;;;;;7.43;3.80;;;;;;;23.97;53.49;99788.16;5275888;28;20394;-65
2022/05/23 11:12:06;;;;;;;6.00;3.67;;;;;;;24.09;52.88;99769.16;5276522;28;20025;-65
2022/05/23 11:14:54;;;;;;;7.35;3.20;;;;;;;24.04;54.16;99758.94;5275996;28;20040;-65
2022/05/23 11:17:33;;;;;;;8.02;2.97;;;;;;;24.22;51.81;99744.38;5278869;28;20033;-65
2022/05/23 11:20:16;;;;;;;4.50;2.65;;;;;;;24.34;50.29;99744.44;5274951;28;20222;-65
2022/05/23 11:23:21;;;;;;;7.45;3.47;;;;;;;24.19;51.06;99737.50;5279914;28;20072;-65
2022/05/23 11:25:58;;;;;;;6.78;2.92;;;;;;;24.42;51.09;99735.88;5269286;28;20041;-65
2022/05/23 11:34:32;;;;;;;5.43;2.38;;;;;;;24.77;49.52;99710.53;5271903;28;20134;-65
2022/05/23 11:40:25;;;;;;;4.63;2.00;;;;;;;25.00;50.91;99715.13;5279757;28;20028;-65
2022/05/23 11:43:01;;;;;;;5.05;2.20;;;;;;;25.16;45.87;99711.66;5268346;28;20029;-65
2022/05/23 11:49:11;;;;;;;4.60;2.53;;;;;;;25.30;50.18;99697.78;5279094;28;20117;-65
2022/05/23 11:51:57;;;;;;;4.45;2.40;;;;;;;25.18;49.58;99704.06;5222368;28;20033;-66
2022/05/23 11:54:32;;;;;;;4.80;2.33;;;;;;;25.15;50.28;99690.06;5278184;28;20485;-65
2022/05/23 11:57:03;;;;;;;5.30;2.30;;;;;;;25.24;47.60;99683.19;5280040;28;20462;-65
2022/05/23 11:59:34;;;;;;;5.30;2.30;;;;;;;25.45;46.32;99681.69;5278589;28;20120;-65
2022/05/23 12:02:12;;;;;;;5.78;2.13;;;;;;;25.30;47.62;99679.47;5279241;28;20036;-65
2022/05/23 12:04:49;;;;;;;4.65;2.17;;;;;;;25.36;48.38;99670.31;5270946;28;20024;-65
2022/05/23 12:07:37;;;;;;;5.72;2.38;;;;;;;25.32;48.88;99673.78;5277708;28;20040;-65
2022/05/23 12:10:28;;;;;;;4.28;2.50;;;;;;;25.21;47.11;99678.16;5279024;28;20036;-65
2022/05/23 12:13:30;;;;;;;6.25;2.30;;;;;;;25.11;48.75;99678.78;5279203;28;20116;-65
2022/05/23 12:16:26;;;;;;;5.93;2.30;;;;;;;24.79;49.84;99673.75;5277271;28;20028;-65
2022/05/23 12:19:23;;;;;;;7.00;2.20;;;;;;;24.70;49.48;99667.03;5275375;28;20410;-65
2022/05/23 12:22:13;;;;;;;4.10;1.85;;;;;;;24.28;52.83;99664.41;5274318;28;20042;-65
2022/05/23 12:25:03;;;;;;;4.68;1.88;;;;;;;24.13;54.72;99666.78;5278072;28;20048;-66
2022/05/23 12:27:35;;;;;;;5.32;1.95;;;;;;;24.18;50.28;99662.28;5275674;28;20036;-65
2022/05/23 12:30:27;;;;;;;6.57;2.08;;;;;;;24.11;53.40;99663.47;5279418;28;20032;-65
2022/05/23 12:32:59;;;;;;;5.63;2.13;;;;;;;24.18;51.75;99659.56;5274413;28;20056;-65
2022/05/23 12:35:30;;;;;;;5.55;2.33;;;;;;;24.16;52.23;99653.50;5276623;28;20045;-65
2022/05/23 12:38:32;;;;;;;6.33;2.20;;;;;;;24.39;56.94;99649.09;5274253;28;20028;-65
2022/05/23 12:41:32;;;;;;;4.15;1.95;;;;;;;24.53;51.49;99638.84;5269719;28;20297;-65
2022/05/23 12:44:25;;;;;;;4.50;2.20;;;;;;;24.61;51.00;99624.81;5270535;28;20036;-65
2022/05/23 12:47:34;;;;;;;6.22;2.13;;;;;;;24.54;52.07;99624.13;5271291;28;20028;-65
2022/05/23 12:50:31;;;;;;;4.78;1.98;;;;;;;24.61;53.52;99614.72;5278322;28;20016;-65
2022/05/23 12:53:28;;;;;;;6.28;2.00;;;;;;;24.74;54.12;99601.88;5278937;28;20458;-64
2022/05/23 12:56:13;;;;;;;6.53;2.05;;;;;;;24.69;52.92;99610.00;5277703;28;20032;-64
2022/05/23 12:59:23;;;;;;;5.78;2.20;;;;;;;24.83;52.24;99601.28;5273071;28;20044;-64
2022/05/23 13:02:02;;;;;;;6.47;2.03;;;;;;;24.73;50.68;99600.25;5274133;28;20036;-64
2022/05/23 13:04:41;;;;;;;5.30;2.40;;;;;;;24.52;51.37;99598.97;5270743;28;20056;-64
2022/05/23 13:07:20;;;;;;;4.50;2.20;;;;;;;24.34;55.44;99597.22;5278353;28;20127;-64
2022/05/23 13:09:59;;;;;;;5.30;2.60;;;;;;;24.14;53.49;99587.47;5273558;28;20036;-64